KESF/ESF METAR and TAF weather

Enter ICAO airport designator
Station Type Date Time Source
KESF METAR 2020/06/05 11:53 UTC NOAA

KESF 051153Z AUTO 00000KT 4SM BR SCT003 22/22 A2995 RMK AO2 SLP140 70026 T02220217 10233 20206 52013


Station Type Date Time Source
KESF Decoded METAR 2020/06/05 11:53 UTC NOAA

ALEXANDRIA ESLER RGNL AIRPORT , LA, United States (KESF) 31-24N 092-18W 28M
Jun 05, 2020 - 07:53 AM EDT / 2020.06.05 1153 UTC
Wind: Calm:0
Visibility: 4 mile(s):0
Sky conditions: partly cloudy
Weather: mist
Temperature: 72.0 F (22.2 C)
Dew Point: 71.1 F (21.7 C)
Relative Humidity: 96%
Pressure (altimeter): 29.95 in. Hg (1014 hPa)
Pressure tendency: 0.04 inches (1.3 hPa) higher than three hours ago
ob: KESF 051153Z AUTO 00000KT 4SM BR SCT003 22/22 A2995 RMK AO2 SLP140 70026 T02220217 10233 20206 52013
cycle: 12

Station Type Date Time Source
KESF TAF UTC NOAA

Error!

Example: see airport list